createdAt,value
2018-05-07T00:01:01.105Z,11.70
2018-05-07T00:03:30.057Z,11.50
2018-05-07T00:05:59.186Z,11.50
2018-05-07T00:08:28.169Z,11.50
2018-05-07T00:10:57.239Z,11.40
2018-05-07T00:13:27.053Z,11.30
2018-05-07T00:15:56.803Z,11.10
2018-05-07T00:18:25.828Z,11.10
2018-05-07T00:20:54.886Z,11.10
2018-05-07T00:23:23.938Z,11.10
2018-05-07T00:25:54.724Z,11.10
2018-05-07T00:28:23.973Z,11.00
2018-05-07T00:30:53.834Z,11.10
2018-05-07T00:33:22.897Z,11.10
2018-05-07T00:35:52.769Z,11.00
2018-05-07T00:38:21.817Z,10.90
2018-05-07T00:40:50.873Z,10.90
2018-05-07T00:43:20.915Z,10.90
2018-05-07T00:45:49.900Z,10.80
2018-05-07T00:48:18.929Z,10.90
2018-05-07T00:50:47.969Z,10.90
2018-05-07T00:53:17.753Z,10.90
2018-05-07T00:55:46.800Z,10.80
2018-05-07T00:58:15.815Z,10.80
2018-05-07T01:00:44.876Z,10.80
2018-05-07T01:03:14.699Z,10.70
2018-05-07T01:05:43.739Z,10.60
2018-05-07T01:08:12.883Z,10.60
2018-05-07T01:10:41.897Z,10.60
2018-05-07T01:13:11.033Z,10.50
2018-05-07T01:15:40.792Z,10.40
2018-05-07T01:18:09.838Z,10.40
2018-05-07T01:20:38.851Z,10.40
2018-05-07T01:23:07.958Z,10.30
2018-05-07T01:25:37.756Z,10.10
2018-05-07T01:28:09.756Z,10.00
2018-05-07T01:30:39.033Z,10.10
2018-05-07T01:33:08.870Z,10.00
2018-05-07T01:35:38.043Z,9.90
2018-05-07T01:38:07.832Z,10.00
2018-05-07T01:40:36.857Z,9.90
2018-05-07T01:43:06.725Z,9.90
2018-05-07T01:45:35.761Z,9.80
2018-05-07T01:48:05.530Z,9.80
2018-05-07T01:50:34.552Z,9.70
2018-05-07T01:53:03.618Z,9.80
2018-05-07T01:55:32.580Z,9.80
2018-05-07T01:58:01.565Z,9.80
2018-05-07T02:00:30.647Z,9.70
2018-05-07T02:03:00.695Z,9.70
2018-05-07T02:05:29.712Z,9.60
2018-05-07T02:07:58.677Z,9.60
2018-05-07T02:10:27.644Z,9.60
2018-05-07T02:12:56.713Z,9.60
2018-05-07T02:15:25.731Z,9.60
2018-05-07T02:17:55.515Z,9.40
2018-05-07T02:20:24.552Z,9.40
2018-05-07T02:22:54.346Z,9.20
2018-05-07T02:25:24.459Z,9.30
2018-05-07T02:27:56.354Z,9.20
2018-05-07T02:30:26.765Z,9.20
2018-05-07T02:32:55.840Z,9.20
2018-05-07T02:35:25.692Z,9.20
2018-05-07T02:37:54.761Z,9.10
2018-05-07T02:40:23.915Z,9.20
2018-05-07T02:42:53.765Z,9.10
2018-05-07T02:45:23.665Z,9.10
2018-05-07T02:47:52.845Z,9.00
2018-05-07T02:50:21.879Z,9.00
2018-05-07T02:52:50.954Z,9.10
2018-05-07T02:55:20.758Z,9.10
2018-05-07T02:57:49.816Z,9.10
2018-05-07T03:00:18.867Z,9.10
2018-05-07T03:02:47.895Z,9.10
2018-05-07T03:05:16.966Z,9.10
2018-05-07T03:07:46.064Z,9.10
2018-05-07T03:10:15.139Z,9.20
2018-05-07T03:12:45.306Z,9.20
2018-05-07T03:15:14.383Z,9.10
2018-05-07T03:17:44.257Z,9.10
2018-05-07T03:20:13.471Z,9.10
2018-05-07T03:22:43.364Z,9.00
2018-05-07T03:25:12.483Z,9.00
2018-05-07T03:27:41.561Z,9.00
2018-05-07T03:30:10.720Z,8.90
2018-05-07T03:32:39.946Z,8.90
2018-05-07T03:35:09.044Z,8.90
2018-05-07T03:37:38.093Z,8.90
2018-05-07T03:40:07.199Z,8.90
2018-05-07T03:42:36.282Z,9.00
2018-05-07T03:45:05.518Z,8.90
2018-05-07T03:47:34.714Z,8.90
2018-05-07T03:50:03.785Z,8.90
2018-05-07T03:52:32.824Z,8.80
2018-05-07T03:55:02.679Z,8.70
2018-05-07T03:57:31.727Z,8.60
2018-05-07T04:00:00.942Z,8.70
2018-05-07T04:02:30.786Z,8.80
2018-05-07T04:04:59.982Z,8.80
2018-05-07T04:07:29.456Z,8.90
2018-05-07T04:09:59.248Z,9.10
2018-05-07T04:12:29.201Z,9.10
2018-05-07T04:14:58.247Z,9.10
2018-05-07T04:21:40.057Z,9.20
2018-05-07T04:24:09.177Z,9.30
2018-05-07T04:26:39.068Z,9.50
2018-05-07T04:29:08.148Z,9.40
2018-05-07T04:31:37.199Z,9.60
2018-05-07T04:34:06.360Z,9.60
2018-05-07T04:36:35.503Z,9.70
2018-05-07T04:39:06.267Z,9.80
2018-05-07T04:41:36.994Z,9.70
2018-05-07T04:44:06.395Z,9.80
2018-05-07T04:46:35.996Z,9.90
2018-05-07T04:49:05.461Z,10.00
2018-05-07T04:51:35.523Z,10.20
2018-05-07T04:54:04.608Z,10.10
2018-05-07T04:56:33.659Z,10.30
2018-05-07T04:59:02.854Z,10.40
2018-05-07T05:01:32.141Z,10.50
2018-05-07T05:04:01.210Z,10.60
2018-05-07T05:06:30.376Z,10.80
2018-05-07T05:09:06.675Z,11.00
2018-05-07T05:11:35.811Z,11.20
2018-05-07T05:14:04.970Z,11.40
2018-05-07T05:16:34.198Z,11.70
2018-05-07T05:19:03.361Z,12.00
2018-05-07T05:21:32.671Z,12.70
2018-05-07T05:24:01.621Z,13.30
2018-05-07T05:26:30.743Z,13.90
2018-05-07T05:29:00.749Z,14.10
2018-05-07T05:31:29.818Z,14.40
2018-05-07T05:33:59.631Z,15.20
2018-05-07T05:36:29.504Z,15.90
2018-05-07T05:38:58.627Z,15.80
2018-05-07T05:41:27.733Z,15.90
2018-05-07T05:43:57.556Z,16.90
2018-05-07T05:46:27.430Z,17.30
2018-05-07T05:48:57.303Z,17.10
2018-05-07T05:51:26.715Z,17.10
2018-05-07T05:53:56.482Z,17.60
2018-05-07T05:56:25.617Z,18.10
2018-05-07T05:58:55.655Z,18.30
2018-05-07T06:01:24.841Z,18.20
2018-05-07T06:03:54.024Z,18.40
2018-05-07T06:06:23.899Z,19.10
2018-05-07T06:08:53.949Z,19.60
2018-05-07T06:11:24.858Z,19.20
2018-05-07T06:13:54.041Z,19.20
2018-05-07T06:16:23.277Z,18.60
2018-05-07T06:18:53.133Z,19.20
2018-05-07T06:21:25.317Z,19.20
2018-05-07T06:23:54.513Z,19.30
2018-05-07T06:26:24.442Z,19.10
2018-05-07T06:28:54.404Z,19.50
2018-05-07T06:31:23.510Z,19.40
2018-05-07T06:33:53.404Z,19.30
2018-05-07T06:36:22.506Z,19.30
2018-05-07T06:38:51.731Z,19.60
2018-05-07T06:41:20.881Z,20.20
2018-05-07T06:43:50.011Z,21.70
2018-05-07T06:46:19.491Z,23.00
2018-05-07T06:48:49.476Z,22.50
2018-05-07T06:51:18.646Z,22.50
2018-05-07T06:53:47.799Z,22.10
2018-05-07T06:56:17.685Z,22.70
2018-05-07T06:58:46.747Z,22.60
2018-05-07T07:01:16.076Z,22.00
2018-05-07T07:03:45.392Z,21.10
2018-05-07T07:06:15.378Z,21.00
2018-05-07T07:08:44.563Z,21.00
2018-05-07T07:11:13.715Z,21.70
2018-05-07T07:13:43.647Z,22.10
2018-05-07T07:16:13.599Z,22.00
2018-05-07T07:18:42.696Z,22.20
2018-05-07T07:21:11.782Z,21.30
2018-05-07T07:23:40.871Z,20.30
2018-05-07T07:26:10.008Z,20.10
2018-05-07T07:28:39.887Z,21.10
2018-05-07T07:31:09.578Z,21.10
2018-05-07T07:33:38.870Z,20.70
2018-05-07T07:36:08.052Z,20.40
2018-05-07T07:38:38.378Z,21.10
2018-05-07T07:41:08.607Z,21.40
2018-05-07T07:43:38.435Z,21.80
2018-05-07T07:46:07.581Z,23.20
2018-05-07T07:48:36.948Z,24.90
2018-05-07T07:51:07.060Z,24.60
2018-05-07T07:53:37.432Z,23.60
2018-05-07T07:56:07.530Z,23.30
2018-05-07T07:58:36.976Z,23.20
2018-05-07T08:01:06.244Z,22.40
2018-05-07T08:03:36.384Z,22.50
2018-05-07T08:06:07.662Z,22.40
2018-05-07T08:08:36.992Z,22.30
2018-05-07T08:11:06.987Z,22.00
2018-05-07T08:13:37.055Z,23.30
2018-05-07T08:16:07.627Z,23.40
2018-05-07T08:18:36.834Z,23.40
2018-05-07T08:21:06.129Z,24.60
2018-05-07T08:24:38.067Z,24.50
2018-05-07T08:27:07.326Z,24.70
2018-05-07T08:29:37.132Z,25.40
2018-05-07T08:32:06.652Z,26.10
2018-05-07T08:34:36.010Z,25.40
2018-05-07T08:37:08.930Z,25.00
2018-05-07T08:39:38.724Z,24.60
2018-05-07T08:42:08.198Z,24.70
2018-05-07T08:44:39.195Z,25.40
2018-05-07T08:47:08.496Z,25.30
2018-05-07T08:49:37.950Z,25.20
2018-05-07T08:52:07.207Z,25.30
2018-05-07T08:55:38.961Z,25.80
2018-05-07T08:58:08.191Z,26.90
2018-05-07T09:00:38.156Z,25.80
2018-05-07T09:03:07.533Z,25.70
2018-05-07T09:05:37.697Z,25.90
2018-05-07T09:08:07.115Z,25.90
2018-05-07T09:10:37.188Z,24.50
2018-05-07T09:13:10.331Z,24.40
2018-05-07T09:15:43.282Z,25.10
2018-05-07T09:18:19.658Z,25.70
2018-05-07T09:20:52.894Z,25.40
2018-05-07T09:23:22.188Z,25.40
2018-05-07T09:25:53.036Z,26.30
2018-05-07T09:28:23.900Z,25.40
2018-05-07T09:30:59.382Z,25.40
2018-05-07T09:33:29.639Z,25.30
2018-05-07T09:35:59.709Z,25.20
2018-05-07T09:38:29.685Z,26.50
2018-05-07T09:41:00.251Z,26.40
2018-05-07T09:43:30.451Z,27.30
2018-05-07T09:45:59.734Z,27.20
2018-05-07T09:48:29.023Z,27.40
2018-05-07T09:50:59.063Z,27.00
2018-05-07T09:53:29.200Z,27.40
2018-05-07T09:55:59.438Z,26.60
2018-05-07T09:58:34.372Z,26.60
2018-05-07T10:01:03.822Z,26.90
2018-05-07T10:03:33.833Z,26.10
2018-05-07T10:06:04.029Z,26.30
2018-05-07T10:08:33.326Z,26.30
2018-05-07T10:11:03.526Z,25.80
2018-05-07T10:13:32.785Z,25.60
2018-05-07T10:16:02.059Z,26.70
2018-05-07T10:18:31.203Z,27.00
2018-05-07T10:21:01.206Z,26.20
2018-05-07T10:23:31.622Z,26.80
2018-05-07T10:26:01.499Z,27.20
2018-05-07T10:28:32.186Z,26.30
2018-05-07T10:31:02.104Z,26.30
2018-05-07T10:33:31.783Z,25.90
2018-05-07T10:36:01.928Z,26.40
2018-05-07T10:38:31.876Z,27.10
2018-05-07T10:41:13.194Z,27.10
2018-05-07T10:43:44.525Z,25.80
2018-05-07T10:46:20.464Z,25.70
2018-05-07T10:48:49.934Z,26.20
2018-05-07T10:51:25.162Z,25.40
2018-05-07T10:53:56.018Z,25.70
2018-05-07T10:56:25.916Z,26.40
2018-05-07T10:58:55.150Z,26.50
2018-05-07T11:01:30.805Z,25.80
2018-05-07T11:04:03.431Z,27.00
2018-05-07T11:06:34.184Z,26.90
2018-05-07T11:09:10.166Z,26.80
2018-05-07T11:11:44.656Z,27.90
2018-05-07T11:14:31.747Z,28.40
2018-05-07T11:17:15.829Z,27.20
2018-05-07T11:19:56.301Z,27.10
2018-05-07T11:22:26.063Z,27.50
2018-05-07T11:24:56.651Z,26.20
2018-05-07T11:27:27.530Z,26.10
2018-05-07T11:29:57.829Z,24.60
2018-05-07T11:32:29.183Z,24.60
2018-05-07T11:35:03.614Z,24.30
2018-05-07T11:37:34.382Z,24.60
2018-05-07T11:40:04.721Z,24.80
2018-05-07T11:42:34.097Z,24.80
2018-05-07T11:45:08.380Z,25.10
2018-05-07T11:47:40.042Z,24.90
2018-05-07T11:50:09.808Z,24.90
2018-05-07T11:52:39.499Z,24.60
2018-05-07T11:55:09.237Z,24.20
2018-05-07T11:57:39.326Z,23.90
2018-05-07T12:00:11.177Z,23.80
2018-05-07T12:02:42.377Z,23.90
2018-05-07T12:05:12.382Z,23.80
2018-05-07T12:10:17.160Z,24.20
2018-05-07T12:12:46.449Z,24.20
2018-05-07T12:15:15.799Z,24.40
2018-05-07T12:17:46.201Z,24.00
2018-05-07T12:20:16.443Z,23.80
2018-05-07T12:22:50.814Z,23.70
2018-05-07T12:25:20.785Z,23.60
2018-05-07T12:27:50.196Z,23.90
2018-05-07T12:30:20.142Z,24.00
2018-05-07T12:32:56.483Z,23.80
2018-05-07T12:35:30.430Z,23.40
2018-05-07T12:38:02.422Z,23.60
2018-05-07T12:40:37.906Z,23.80
2018-05-07T12:43:14.419Z,23.70
2018-05-07T12:45:44.729Z,23.80
2018-05-07T12:48:14.772Z,23.30
2018-05-07T12:50:44.084Z,23.30
2018-05-07T12:53:17.289Z,23.30
2018-05-07T12:55:48.756Z,23.60
2018-05-07T12:58:18.913Z,23.50
2018-05-07T13:00:49.339Z,23.60
2018-05-07T13:03:19.559Z,23.50
2018-05-07T13:05:49.004Z,23.40
2018-05-07T13:08:20.609Z,23.20
2018-05-07T13:10:49.831Z,23.40
2018-05-07T13:13:19.962Z,23.20
2018-05-07T13:15:49.931Z,23.00
2018-05-07T13:18:19.157Z,23.00
2018-05-07T13:20:48.403Z,23.30
2018-05-07T13:23:17.839Z,23.10
2018-05-07T13:26:00.277Z,23.10
2018-05-07T13:28:29.680Z,23.20
2018-05-07T13:30:59.703Z,23.00
2018-05-07T13:33:30.759Z,23.20
2018-05-07T13:36:00.091Z,23.20
2018-05-07T13:38:30.746Z,23.10
2018-05-07T13:40:59.958Z,23.10
2018-05-07T13:43:29.151Z,23.10
2018-05-07T13:45:59.384Z,23.30
2018-05-07T13:48:28.541Z,23.20
2018-05-07T13:50:58.479Z,22.90
2018-05-07T13:53:28.042Z,22.80
2018-05-07T13:56:00.144Z,22.40
2018-05-07T13:58:29.425Z,22.40
2018-05-07T14:00:59.426Z,22.40
2018-05-07T14:03:29.438Z,22.30
2018-05-07T14:06:05.281Z,22.50
2018-05-07T14:08:34.960Z,22.40
2018-05-07T14:11:05.060Z,22.50
2018-05-07T14:13:34.243Z,22.50
2018-05-07T14:16:03.541Z,22.60
2018-05-07T14:18:32.814Z,22.60
2018-05-07T14:21:01.971Z,22.50
2018-05-07T14:23:32.313Z,22.50
2018-05-07T14:26:02.397Z,22.60
2018-05-07T14:28:32.389Z,22.50
2018-05-07T14:31:01.635Z,22.70
2018-05-07T14:33:31.707Z,22.60
2018-05-07T14:36:01.192Z,22.50
2018-05-07T14:38:30.552Z,22.70
2018-05-07T14:41:00.529Z,22.30
2018-05-07T14:43:30.401Z,22.30
2018-05-07T14:46:01.519Z,22.60
2018-05-07T14:48:30.717Z,22.50
2018-05-07T14:51:00.748Z,22.40
2018-05-07T14:53:31.478Z,22.40
2018-05-07T14:56:01.177Z,22.50
2018-05-07T14:58:33.249Z,22.40
2018-05-07T15:01:02.908Z,22.40
2018-05-07T15:03:36.193Z,22.40
2018-05-07T15:06:06.805Z,22.20
2018-05-07T15:08:36.130Z,22.10
2018-05-07T15:11:06.731Z,22.00
2018-05-07T15:13:36.081Z,22.20
2018-05-07T15:16:05.556Z,22.10
2018-05-07T15:18:42.676Z,22.00
2018-05-07T15:21:13.208Z,22.00
2018-05-07T15:23:43.171Z,22.00
2018-05-07T15:26:12.429Z,22.00
2018-05-07T15:28:48.533Z,22.00
2018-05-07T15:31:23.731Z,22.20
2018-05-07T15:33:53.770Z,22.10
2018-05-07T15:36:24.499Z,22.00
2018-05-07T15:39:01.075Z,22.00
2018-05-07T15:41:31.346Z,21.90
2018-05-07T15:44:01.434Z,22.10
2018-05-07T15:46:32.781Z,22.00
2018-05-07T15:49:03.855Z,21.80
2018-05-07T15:51:34.632Z,21.80
2018-05-07T15:54:05.082Z,21.90
2018-05-07T15:56:38.149Z,22.00
2018-05-07T15:59:17.649Z,22.00
2018-05-07T16:01:48.644Z,22.10
2018-05-07T16:04:27.176Z,22.00
2018-05-07T16:06:56.666Z,22.00
2018-05-07T16:09:26.599Z,21.80
2018-05-07T16:11:56.014Z,21.80
2018-05-07T16:14:25.370Z,21.80
2018-05-07T16:16:55.782Z,21.90
2018-05-07T16:19:25.330Z,21.80
2018-05-07T16:21:57.303Z,21.90
2018-05-07T16:24:26.920Z,21.80
2018-05-07T16:26:57.787Z,21.70
2018-05-07T16:29:27.852Z,21.70
2018-05-07T16:31:58.266Z,21.60
2018-05-07T16:34:33.387Z,21.60
2018-05-07T16:37:03.818Z,21.60
2018-05-07T16:39:34.891Z,21.40
2018-05-07T16:42:13.408Z,21.40
2018-05-07T16:44:42.733Z,21.40
2018-05-07T16:47:13.414Z,21.40
2018-05-07T16:49:44.750Z,21.40
2018-05-07T16:52:15.520Z,21.40
2018-05-07T16:54:51.207Z,21.40
2018-05-07T16:57:21.430Z,21.30
2018-05-07T16:59:50.747Z,21.30
2018-05-07T17:02:20.965Z,21.30
2018-05-07T17:04:51.288Z,21.20
2018-05-07T17:07:22.773Z,21.10
2018-05-07T17:09:53.036Z,21.10
2018-05-07T17:12:23.746Z,21.10
2018-05-07T17:14:53.420Z,21.00
2018-05-07T17:17:22.728Z,21.00
2018-05-07T17:19:52.482Z,20.90
2018-05-07T17:22:23.136Z,20.90
2018-05-07T17:24:52.767Z,20.90
2018-05-07T17:27:23.043Z,20.80
2018-05-07T17:29:52.839Z,20.80
2018-05-07T17:32:24.759Z,20.80
2018-05-07T17:34:54.165Z,20.80
2018-05-07T17:37:24.834Z,20.60
2018-05-07T17:39:54.232Z,20.60
2018-05-07T17:42:23.440Z,20.60
2018-05-07T17:45:08.248Z,20.50
2018-05-07T18:31:29.391Z,20.40
2018-05-07T18:33:59.499Z,19.40
2018-05-07T18:36:29.976Z,19.40
2018-05-07T18:38:59.762Z,19.40
2018-05-07T18:41:29.870Z,19.30
2018-05-07T18:43:59.019Z,19.30
2018-05-07T18:46:29.187Z,19.20
2018-05-07T18:49:00.339Z,19.10
2018-05-07T18:51:30.243Z,18.90
2018-05-07T18:53:59.476Z,18.80
2018-05-07T18:56:29.178Z,18.80
2018-05-07T18:59:00.230Z,18.70
2018-05-07T19:01:30.399Z,18.60
2018-05-07T19:03:59.549Z,18.50
2018-05-07T19:06:28.908Z,18.40
2018-05-07T19:08:58.866Z,18.30
2018-05-07T19:11:28.793Z,18.20
2018-05-07T19:13:58.086Z,18.10
2018-05-07T19:16:27.458Z,18.10
2018-05-07T19:18:57.474Z,18.00
2018-05-07T19:21:27.593Z,18.10
2018-05-07T19:23:57.811Z,18.10
2018-05-07T19:26:27.740Z,18.10
2018-05-07T19:28:57.028Z,18.10
2018-05-07T19:31:27.197Z,18.00
2018-05-07T19:33:57.709Z,18.00
2018-05-07T19:36:27.847Z,18.00
2018-05-07T19:38:57.154Z,18.00
2018-05-07T19:41:26.761Z,18.00
2018-05-07T19:43:57.319Z,18.00
2018-05-07T19:46:27.237Z,18.00
2018-05-07T19:48:57.898Z,17.90
2018-05-07T19:51:27.936Z,17.90
2018-05-07T19:53:58.182Z,17.90
2018-05-07T19:56:32.075Z,17.90
2018-05-07T19:59:01.544Z,17.90
2018-05-07T20:01:30.900Z,17.90
2018-05-07T20:04:00.261Z,17.80
2018-05-07T20:06:31.065Z,17.80
2018-05-07T20:09:00.528Z,17.80
2018-05-07T20:11:32.829Z,17.70
2018-05-07T20:14:02.086Z,17.60
2018-05-07T20:16:31.200Z,17.40
2018-05-07T20:19:01.145Z,17.30
2018-05-07T20:21:30.826Z,17.20
2018-05-07T20:23:59.953Z,17.10
2018-05-07T20:26:30.528Z,16.90
2018-05-07T20:29:00.675Z,16.80
2018-05-07T20:31:29.836Z,16.70
2018-05-07T20:34:00.316Z,16.60
2018-05-07T20:36:29.662Z,16.60
2018-05-07T20:38:58.944Z,16.60
2018-05-07T20:41:28.109Z,16.70
2018-05-07T20:43:58.382Z,16.80
2018-05-07T20:46:28.823Z,16.70
2018-05-07T20:48:58.647Z,16.60
2018-05-07T20:51:28.524Z,16.70
2018-05-07T20:53:59.280Z,16.50
2018-05-07T20:56:29.123Z,16.40
2018-05-07T20:59:05.002Z,16.40
2018-05-07T21:01:34.256Z,16.30
2018-05-07T21:04:03.568Z,16.20
2018-05-07T21:06:32.706Z,16.00
2018-05-07T21:09:04.498Z,15.90
2018-05-07T21:11:34.484Z,15.70
2018-05-07T21:14:05.313Z,15.60
2018-05-07T21:16:35.213Z,15.40
2018-05-07T21:19:04.459Z,15.40
2018-05-07T21:21:35.126Z,15.30
2018-05-07T21:24:04.258Z,15.20
2018-05-07T21:26:34.269Z,15.10
2018-05-07T21:29:04.707Z,15.00
2018-05-07T21:31:33.959Z,15.00
2018-05-07T21:34:04.195Z,14.90
2018-05-07T21:36:33.406Z,14.80
2018-05-07T21:39:02.498Z,14.80
2018-05-07T21:41:38.748Z,14.70
2018-05-07T21:44:09.107Z,14.60
2018-05-07T21:46:39.161Z,14.60
2018-05-07T21:49:09.685Z,14.60
2018-05-07T21:51:39.511Z,14.50
2018-05-07T21:54:10.319Z,14.30
2018-05-07T21:56:49.915Z,14.30
2018-05-07T21:59:20.401Z,14.20
2018-05-07T22:01:54.005Z,14.00
2018-05-07T22:04:25.285Z,14.00
2018-05-07T22:06:57.128Z,13.80
2018-05-07T22:09:28.668Z,13.80
2018-05-07T22:11:59.255Z,13.70
2018-05-07T22:14:35.319Z,13.70
2018-05-07T22:17:07.595Z,13.70
2018-05-07T22:19:39.456Z,13.50
2018-05-07T22:22:12.090Z,13.50
2018-05-07T22:24:46.236Z,13.40
2018-05-07T22:27:17.808Z,13.40
2018-05-07T22:29:49.066Z,13.30
2018-05-07T22:32:21.112Z,13.30
2018-05-07T22:34:51.404Z,13.30
2018-05-07T22:37:22.391Z,13.20
2018-05-07T22:39:51.635Z,13.10
2018-05-07T22:42:25.210Z,13.00
2018-05-07T22:44:55.803Z,12.90
2018-05-07T22:47:32.373Z,12.60
2018-05-07T22:50:05.143Z,12.40
2018-05-07T22:52:35.134Z,12.30
2018-05-07T22:55:05.378Z,12.40
2018-05-07T22:57:34.656Z,12.20
2018-05-07T23:00:06.873Z,12.20
2018-05-07T23:02:36.705Z,12.30
2018-05-07T23:05:07.057Z,12.10
2018-05-07T23:07:36.578Z,12.30
2018-05-07T23:10:05.909Z,12.40
2018-05-07T23:12:35.824Z,12.30
2018-05-07T23:15:05.306Z,12.20
2018-05-07T23:17:34.516Z,12.10
2018-05-07T23:20:04.235Z,12.20
2018-05-07T23:22:34.768Z,12.20
2018-05-07T23:25:04.609Z,12.20
2018-05-07T23:27:34.235Z,12.10
2018-05-07T23:30:03.636Z,12.10
2018-05-07T23:32:33.756Z,11.90
2018-05-07T23:35:03.269Z,11.90
2018-05-07T23:37:32.696Z,11.90
2018-05-07T23:40:03.065Z,12.00
2018-05-07T23:42:32.669Z,11.90
2018-05-07T23:45:01.987Z,11.80
2018-05-07T23:47:31.540Z,11.70
2018-05-07T23:50:02.373Z,11.60
2018-05-07T23:52:32.618Z,11.60
2018-05-07T23:55:03.952Z,11.60
2018-05-07T23:57:33.051Z,11.50
